sensor_id;sensor_type;location;lat;lon;timestamp;P1;durP1;ratioP1;P2;durP2;ratioP2
51758;SDS011;66684;47.568;18.734;2023-04-25T00:01:38;2.08;;;1.00;;
51758;SDS011;66684;47.568;18.734;2023-04-25T00:04:04;2.83;;;1.25;;
51758;SDS011;66684;47.568;18.734;2023-04-25T00:06:33;2.05;;;1.20;;
51758;SDS011;66684;47.568;18.734;2023-04-25T00:09:02;3.97;;;1.62;;
51758;SDS011;66684;47.568;18.734;2023-04-25T00:11:35;4.18;;;1.95;;
51758;SDS011;66684;47.568;18.734;2023-04-25T00:14:02;6.10;;;2.70;;
51758;SDS011;66684;47.568;18.734;2023-04-25T00:16:29;2.92;;;2.40;;
51758;SDS011;66684;47.568;18.734;2023-04-25T00:18:59;4.00;;;2.72;;
51758;SDS011;66684;47.568;18.734;2023-04-25T00:21:25;2.62;;;2.22;;
51758;SDS011;66684;47.568;18.734;2023-04-25T00:23:54;3.20;;;2.72;;
51758;SDS011;66684;47.568;18.734;2023-04-25T00:26:21;3.20;;;2.58;;
51758;SDS011;66684;47.568;18.734;2023-04-25T00:28:47;4.00;;;2.80;;
51758;SDS011;66684;47.568;18.734;2023-04-25T00:31:13;3.83;;;3.00;;
51758;SDS011;66684;47.568;18.734;2023-04-25T00:33:40;5.50;;;2.92;;
51758;SDS011;66684;47.568;18.734;2023-04-25T00:36:06;4.75;;;2.92;;
51758;SDS011;66684;47.568;18.734;2023-04-25T00:38:32;4.95;;;2.90;;
51758;SDS011;66684;47.568;18.734;2023-04-25T00:40:58;3.37;;;2.65;;
51758;SDS011;66684;47.568;18.734;2023-04-25T00:43:25;3.78;;;2.55;;
51758;SDS011;66684;47.568;18.734;2023-04-25T00:45:52;4.97;;;2.83;;
51758;SDS011;66684;47.568;18.734;2023-04-25T00:48:19;4.30;;;2.70;;
51758;SDS011;66684;47.568;18.734;2023-04-25T00:50:54;4.53;;;2.33;;
51758;SDS011;66684;47.568;18.734;2023-04-25T00:53:23;3.00;;;2.33;;
51758;SDS011;66684;47.568;18.734;2023-04-25T00:55:50;2.67;;;2.10;;
51758;SDS011;66684;47.568;18.734;2023-04-25T00:58:20;3.67;;;2.72;;
51758;SDS011;66684;47.568;18.734;2023-04-25T01:00:47;4.37;;;2.47;;
51758;SDS011;66684;47.568;18.734;2023-04-25T01:03:14;3.55;;;1.98;;
51758;SDS011;66684;47.568;18.734;2023-04-25T01:05:47;3.62;;;2.03;;
51758;SDS011;66684;47.568;18.734;2023-04-25T01:08:13;3.45;;;2.08;;
51758;SDS011;66684;47.568;18.734;2023-04-25T01:10:40;3.35;;;1.85;;
51758;SDS011;66684;47.568;18.734;2023-04-25T01:13:06;2.33;;;2.00;;
51758;SDS011;66684;47.568;18.734;2023-04-25T01:15:32;2.72;;;1.80;;
51758;SDS011;66684;47.568;18.734;2023-04-25T01:17:58;3.58;;;1.80;;
51758;SDS011;66684;47.568;18.734;2023-04-25T01:20:26;3.78;;;1.40;;
51758;SDS011;66684;47.568;18.734;2023-04-25T01:22:54;2.12;;;1.45;;
51758;SDS011;66684;47.568;18.734;2023-04-25T01:25:21;2.40;;;1.70;;
51758;SDS011;66684;47.568;18.734;2023-04-25T01:27:48;2.35;;;1.70;;
51758;SDS011;66684;47.568;18.734;2023-04-25T01:30:14;2.92;;;1.80;;
51758;SDS011;66684;47.568;18.734;2023-04-25T01:32:40;3.87;;;2.03;;
51758;SDS011;66684;47.568;18.734;2023-04-25T01:35:08;4.43;;;1.70;;
51758;SDS011;66684;47.568;18.734;2023-04-25T01:37:39;2.15;;;1.58;;
51758;SDS011;66684;47.568;18.734;2023-04-25T01:40:07;2.15;;;1.70;;
51758;SDS011;66684;47.568;18.734;2023-04-25T01:42:34;2.72;;;1.52;;
51758;SDS011;66684;47.568;18.734;2023-04-25T01:45:03;4.35;;;2.00;;
51758;SDS011;66684;47.568;18.734;2023-04-25T01:47:29;3.10;;;1.70;;
51758;SDS011;66684;47.568;18.734;2023-04-25T01:49:55;2.97;;;1.65;;
51758;SDS011;66684;47.568;18.734;2023-04-25T01:52:21;4.85;;;1.77;;
51758;SDS011;66684;47.568;18.734;2023-04-25T01:54:47;4.03;;;2.00;;
51758;SDS011;66684;47.568;18.734;2023-04-25T01:57:14;2.92;;;1.77;;
51758;SDS011;66684;47.568;18.734;2023-04-25T01:59:40;2.20;;;1.87;;
51758;SDS011;66684;47.568;18.734;2023-04-25T02:02:06;2.83;;;1.95;;
51758;SDS011;66684;47.568;18.734;2023-04-25T02:04:32;3.53;;;1.92;;
51758;SDS011;66684;47.568;18.734;2023-04-25T02:06:58;3.78;;;1.83;;
51758;SDS011;66684;47.568;18.734;2023-04-25T02:09:24;4.60;;;1.90;;
51758;SDS011;66684;47.568;18.734;2023-04-25T02:11:50;6.30;;;2.08;;
51758;SDS011;66684;47.568;18.734;2023-04-25T02:14:16;3.83;;;1.80;;
51758;SDS011;66684;47.568;18.734;2023-04-25T02:16:42;4.35;;;2.08;;
51758;SDS011;66684;47.568;18.734;2023-04-25T02:19:09;3.95;;;2.45;;
51758;SDS011;66684;47.568;18.734;2023-04-25T02:21:35;2.90;;;2.20;;
51758;SDS011;66684;47.568;18.734;2023-04-25T02:24:02;2.85;;;1.83;;
51758;SDS011;66684;47.568;18.734;2023-04-25T02:26:29;2.67;;;1.85;;
51758;SDS011;66684;47.568;18.734;2023-04-25T02:28:58;4.20;;;2.17;;
51758;SDS011;66684;47.568;18.734;2023-04-25T02:31:24;3.17;;;2.17;;
51758;SDS011;66684;47.568;18.734;2023-04-25T02:33:51;4.62;;;2.08;;
51758;SDS011;66684;47.568;18.734;2023-04-25T02:36:17;4.07;;;2.15;;
51758;SDS011;66684;47.568;18.734;2023-04-25T02:38:43;3.33;;;1.87;;
51758;SDS011;66684;47.568;18.734;2023-04-25T02:41:09;2.97;;;2.12;;
51758;SDS011;66684;47.568;18.734;2023-04-25T02:43:35;4.40;;;1.92;;
51758;SDS011;66684;47.568;18.734;2023-04-25T02:46:00;8.73;;;1.80;;
51758;SDS011;66684;47.568;18.734;2023-04-25T02:48:26;3.33;;;2.12;;
51758;SDS011;66684;47.568;18.734;2023-04-25T02:50:52;3.80;;;2.10;;
51758;SDS011;66684;47.568;18.734;2023-04-25T02:53:18;2.70;;;1.90;;
51758;SDS011;66684;47.568;18.734;2023-04-25T02:55:44;2.40;;;1.83;;
51758;SDS011;66684;47.568;18.734;2023-04-25T02:58:10;2.70;;;1.95;;
51758;SDS011;66684;47.568;18.734;2023-04-25T03:00:36;3.45;;;2.17;;
51758;SDS011;66684;47.568;18.734;2023-04-25T03:03:02;2.60;;;1.67;;
51758;SDS011;66684;47.568;18.734;2023-04-25T03:05:28;2.67;;;1.87;;
51758;SDS011;66684;47.568;18.734;2023-04-25T03:07:54;3.33;;;2.20;;
51758;SDS011;66684;47.568;18.734;2023-04-25T03:10:20;4.93;;;2.08;;
51758;SDS011;66684;47.568;18.734;2023-04-25T03:12:45;3.03;;;1.92;;
51758;SDS011;66684;47.568;18.734;2023-04-25T03:15:11;6.18;;;2.20;;
51758;SDS011;66684;47.568;18.734;2023-04-25T03:17:37;3.95;;;2.33;;
51758;SDS011;66684;47.568;18.734;2023-04-25T03:20:03;2.65;;;2.00;;
51758;SDS011;66684;47.568;18.734;2023-04-25T03:22:29;4.32;;;2.10;;
51758;SDS011;66684;47.568;18.734;2023-04-25T03:24:55;4.25;;;2.50;;
51758;SDS011;66684;47.568;18.734;2023-04-25T03:27:21;4.55;;;2.05;;
51758;SDS011;66684;47.568;18.734;2023-04-25T03:29:47;3.28;;;2.10;;
51758;SDS011;66684;47.568;18.734;2023-04-25T03:32:13;4.10;;;2.53;;
51758;SDS011;66684;47.568;18.734;2023-04-25T03:34:39;5.80;;;2.55;;
51758;SDS011;66684;47.568;18.734;2023-04-25T03:37:05;3.35;;;2.25;;
51758;SDS011;66684;47.568;18.734;2023-04-25T03:39:31;3.00;;;1.87;;
51758;SDS011;66684;47.568;18.734;2023-04-25T03:41:57;4.62;;;2.12;;
51758;SDS011;66684;47.568;18.734;2023-04-25T03:44:23;4.18;;;2.17;;
51758;SDS011;66684;47.568;18.734;2023-04-25T03:46:49;5.55;;;2.40;;
51758;SDS011;66684;47.568;18.734;2023-04-25T03:49:16;2.62;;;2.15;;
51758;SDS011;66684;47.568;18.734;2023-04-25T03:51:41;3.65;;;2.17;;
51758;SDS011;66684;47.568;18.734;2023-04-25T03:54:07;3.70;;;2.20;;
51758;SDS011;66684;47.568;18.734;2023-04-25T03:56:33;6.32;;;2.42;;
51758;SDS011;66684;47.568;18.734;2023-04-25T03:58:59;4.80;;;2.40;;
51758;SDS011;66684;47.568;18.734;2023-04-25T04:01:25;3.85;;;2.40;;
51758;SDS011;66684;47.568;18.734;2023-04-25T04:03:51;2.90;;;2.42;;
51758;SDS011;66684;47.568;18.734;2023-04-25T04:06:17;3.45;;;2.70;;
51758;SDS011;66684;47.568;18.734;2023-04-25T04:08:43;3.60;;;2.70;;
51758;SDS011;66684;47.568;18.734;2023-04-25T04:11:09;4.55;;;2.67;;
51758;SDS011;66684;47.568;18.734;2023-04-25T04:13:36;2.97;;;2.67;;
51758;SDS011;66684;47.568;18.734;2023-04-25T04:16:02;4.25;;;2.75;;
51758;SDS011;66684;47.568;18.734;2023-04-25T04:18:29;4.65;;;3.10;;
51758;SDS011;66684;47.568;18.734;2023-04-25T04:20:55;7.57;;;3.33;;
51758;SDS011;66684;47.568;18.734;2023-04-25T04:23:23;3.58;;;2.92;;
51758;SDS011;66684;47.568;18.734;2023-04-25T04:25:49;3.72;;;3.08;;
51758;SDS011;66684;47.568;18.734;2023-04-25T04:28:15;3.60;;;3.10;;
51758;SDS011;66684;47.568;18.734;2023-04-25T04:30:41;6.18;;;3.10;;
51758;SDS011;66684;47.568;18.734;2023-04-25T04:33:08;5.80;;;3.58;;
51758;SDS011;66684;47.568;18.734;2023-04-25T04:35:34;5.97;;;3.65;;
51758;SDS011;66684;47.568;18.734;2023-04-25T04:38:00;4.70;;;3.08;;
51758;SDS011;66684;47.568;18.734;2023-04-25T04:40:26;4.93;;;3.75;;
51758;SDS011;66684;47.568;18.734;2023-04-25T04:42:52;5.90;;;3.83;;
51758;SDS011;66684;47.568;18.734;2023-04-25T04:45:18;6.90;;;4.00;;
51758;SDS011;66684;47.568;18.734;2023-04-25T04:47:44;7.07;;;4.32;;
51758;SDS011;66684;47.568;18.734;2023-04-25T04:50:11;5.20;;;3.60;;
51758;SDS011;66684;47.568;18.734;2023-04-25T04:52:37;5.22;;;3.62;;
51758;SDS011;66684;47.568;18.734;2023-04-25T04:55:04;4.97;;;4.03;;
51758;SDS011;66684;47.568;18.734;2023-04-25T04:57:31;7.28;;;3.85;;
51758;SDS011;66684;47.568;18.734;2023-04-25T04:59:58;7.65;;;4.07;;
51758;SDS011;66684;47.568;18.734;2023-04-25T05:02:25;7.90;;;4.00;;
51758;SDS011;66684;47.568;18.734;2023-04-25T05:04:51;6.35;;;3.90;;
51758;SDS011;66684;47.568;18.734;2023-04-25T05:07:17;6.37;;;4.75;;
51758;SDS011;66684;47.568;18.734;2023-04-25T05:09:44;10.07;;;3.90;;
51758;SDS011;66684;47.568;18.734;2023-04-25T05:12:10;7.22;;;4.60;;
51758;SDS011;66684;47.568;18.734;2023-04-25T05:14:36;6.72;;;5.00;;
51758;SDS011;66684;47.568;18.734;2023-04-25T05:17:02;7.68;;;5.70;;
51758;SDS011;66684;47.568;18.734;2023-04-25T05:19:30;8.13;;;6.55;;
51758;SDS011;66684;47.568;18.734;2023-04-25T05:21:58;7.97;;;4.70;;
51758;SDS011;66684;47.568;18.734;2023-04-25T05:24:24;5.60;;;4.75;;
51758;SDS011;66684;47.568;18.734;2023-04-25T05:26:50;7.50;;;4.50;;
51758;SDS011;66684;47.568;18.734;2023-04-25T05:29:16;9.80;;;5.50;;
51758;SDS011;66684;47.568;18.734;2023-04-25T05:31:41;6.32;;;4.37;;
51758;SDS011;66684;47.568;18.734;2023-04-25T05:34:07;5.30;;;4.43;;
51758;SDS011;66684;47.568;18.734;2023-04-25T05:36:33;6.72;;;4.10;;
51758;SDS011;66684;47.568;18.734;2023-04-25T05:38:59;5.85;;;4.55;;
51758;SDS011;66684;47.568;18.734;2023-04-25T05:41:25;6.37;;;4.40;;
51758;SDS011;66684;47.568;18.734;2023-04-25T05:43:51;7.57;;;4.40;;
51758;SDS011;66684;47.568;18.734;2023-04-25T05:46:17;4.72;;;4.05;;
51758;SDS011;66684;47.568;18.734;2023-04-25T05:48:43;5.25;;;4.75;;
51758;SDS011;66684;47.568;18.734;2023-04-25T05:51:09;5.00;;;3.92;;
51758;SDS011;66684;47.568;18.734;2023-04-25T05:53:35;7.18;;;4.03;;
51758;SDS011;66684;47.568;18.734;2023-04-25T05:56:01;5.20;;;4.43;;
51758;SDS011;66684;47.568;18.734;2023-04-25T05:58:27;5.93;;;3.90;;
51758;SDS011;66684;47.568;18.734;2023-04-25T06:00:53;4.87;;;3.80;;
51758;SDS011;66684;47.568;18.734;2023-04-25T06:03:18;6.25;;;3.90;;
51758;SDS011;66684;47.568;18.734;2023-04-25T06:05:44;5.40;;;3.60;;
51758;SDS011;66684;47.568;18.734;2023-04-25T06:08:10;5.28;;;3.72;;
51758;SDS011;66684;47.568;18.734;2023-04-25T06:10:36;4.93;;;3.47;;
51758;SDS011;66684;47.568;18.734;2023-04-25T06:13:03;5.10;;;3.75;;
51758;SDS011;66684;47.568;18.734;2023-04-25T06:15:29;5.03;;;3.40;;
51758;SDS011;66684;47.568;18.734;2023-04-25T06:17:57;5.82;;;3.72;;
51758;SDS011;66684;47.568;18.734;2023-04-25T06:20:24;3.70;;;3.20;;
51758;SDS011;66684;47.568;18.734;2023-04-25T06:22:50;7.22;;;3.28;;
51758;SDS011;66684;47.568;18.734;2023-04-25T06:25:19;4.32;;;3.50;;
51758;SDS011;66684;47.568;18.734;2023-04-25T06:27:45;4.60;;;3.40;;
51758;SDS011;66684;47.568;18.734;2023-04-25T06:30:11;4.37;;;3.50;;
51758;SDS011;66684;47.568;18.734;2023-04-25T06:32:38;5.37;;;3.30;;
51758;SDS011;66684;47.568;18.734;2023-04-25T06:35:04;6.60;;;3.85;;
51758;SDS011;66684;47.568;18.734;2023-04-25T06:37:30;8.60;;;3.70;;
51758;SDS011;66684;47.568;18.734;2023-04-25T06:39:56;5.45;;;3.58;;
51758;SDS011;66684;47.568;18.734;2023-04-25T06:42:22;6.35;;;4.30;;
51758;SDS011;66684;47.568;18.734;2023-04-25T06:44:48;5.20;;;4.03;;
51758;SDS011;66684;47.568;18.734;2023-04-25T06:47:14;4.78;;;3.87;;
51758;SDS011;66684;47.568;18.734;2023-04-25T06:49:40;4.72;;;3.70;;
51758;SDS011;66684;47.568;18.734;2023-04-25T06:52:07;6.28;;;3.83;;
51758;SDS011;66684;47.568;18.734;2023-04-25T06:54:33;5.57;;;4.12;;
51758;SDS011;66684;47.568;18.734;2023-04-25T06:56:59;7.10;;;3.97;;
51758;SDS011;66684;47.568;18.734;2023-04-25T06:59:26;5.20;;;3.92;;
51758;SDS011;66684;47.568;18.734;2023-04-25T07:01:52;5.05;;;3.83;;
51758;SDS011;66684;47.568;18.734;2023-04-25T07:04:18;5.25;;;4.15;;
51758;SDS011;66684;47.568;18.734;2023-04-25T07:06:44;7.18;;;4.25;;
51758;SDS011;66684;47.568;18.734;2023-04-25T07:09:10;4.75;;;4.25;;
51758;SDS011;66684;47.568;18.734;2023-04-25T07:11:36;6.30;;;3.78;;
51758;SDS011;66684;47.568;18.734;2023-04-25T07:14:02;5.45;;;3.53;;
51758;SDS011;66684;47.568;18.734;2023-04-25T07:16:28;5.18;;;3.50;;
51758;SDS011;66684;47.568;18.734;2023-04-25T07:18:54;4.85;;;4.00;;
51758;SDS011;66684;47.568;18.734;2023-04-25T07:21:20;4.40;;;3.78;;
51758;SDS011;66684;47.568;18.734;2023-04-25T07:23:46;6.93;;;3.90;;
51758;SDS011;66684;47.568;18.734;2023-04-25T07:26:12;6.47;;;3.75;;
51758;SDS011;66684;47.568;18.734;2023-04-25T07:28:38;4.93;;;3.80;;
51758;SDS011;66684;47.568;18.734;2023-04-25T07:31:04;5.30;;;4.35;;
51758;SDS011;66684;47.568;18.734;2023-04-25T07:33:30;5.65;;;4.00;;
51758;SDS011;66684;47.568;18.734;2023-04-25T07:35:56;5.10;;;3.95;;
51758;SDS011;66684;47.568;18.734;2023-04-25T07:38:22;9.85;;;4.20;;
51758;SDS011;66684;47.568;18.734;2023-04-25T07:40:48;6.37;;;3.80;;
51758;SDS011;66684;47.568;18.734;2023-04-25T07:43:15;5.50;;;4.15;;
51758;SDS011;66684;47.568;18.734;2023-04-25T07:45:42;5.25;;;3.83;;
51758;SDS011;66684;47.568;18.734;2023-04-25T07:48:09;4.75;;;3.95;;
51758;SDS011;66684;47.568;18.734;2023-04-25T07:50:35;5.10;;;3.97;;
51758;SDS011;66684;47.568;18.734;2023-04-25T07:53:01;5.50;;;4.28;;
51758;SDS011;66684;47.568;18.734;2023-04-25T07:55:27;5.40;;;4.20;;
51758;SDS011;66684;47.568;18.734;2023-04-25T07:57:53;5.50;;;3.85;;
51758;SDS011;66684;47.568;18.734;2023-04-25T08:00:19;4.82;;;3.83;;
51758;SDS011;66684;47.568;18.734;2023-04-25T08:02:45;4.53;;;4.10;;
51758;SDS011;66684;47.568;18.734;2023-04-25T08:05:11;5.57;;;4.35;;
51758;SDS011;66684;47.568;18.734;2023-04-25T08:07:40;6.93;;;4.37;;
51758;SDS011;66684;47.568;18.734;2023-04-25T08:10:07;6.18;;;4.87;;
51758;SDS011;66684;47.568;18.734;2023-04-25T08:12:33;5.80;;;4.15;;
51758;SDS011;66684;47.568;18.734;2023-04-25T08:14:59;5.78;;;4.35;;
51758;SDS011;66684;47.568;18.734;2023-04-25T08:17:25;6.50;;;4.43;;
51758;SDS011;66684;47.568;18.734;2023-04-25T08:19:51;7.25;;;5.55;;
51758;SDS011;66684;47.568;18.734;2023-04-25T08:22:17;6.20;;;5.60;;
51758;SDS011;66684;47.568;18.734;2023-04-25T08:24:43;8.70;;;5.28;;
51758;SDS011;66684;47.568;18.734;2023-04-25T08:27:09;5.75;;;4.25;;
51758;SDS011;66684;47.568;18.734;2023-04-25T08:29:35;6.62;;;4.82;;
51758;SDS011;66684;47.568;18.734;2023-04-25T08:32:01;10.98;;;8.27;;
51758;SDS011;66684;47.568;18.734;2023-04-25T08:34:27;8.00;;;5.37;;
51758;SDS011;66684;47.568;18.734;2023-04-25T08:36:53;9.80;;;6.72;;
51758;SDS011;66684;47.568;18.734;2023-04-25T08:39:18;6.30;;;5.45;;
51758;SDS011;66684;47.568;18.734;2023-04-25T08:41:46;5.30;;;4.65;;
51758;SDS011;66684;47.568;18.734;2023-04-25T08:44:12;5.22;;;4.43;;
51758;SDS011;66684;47.568;18.734;2023-04-25T08:46:39;8.70;;;4.25;;
51758;SDS011;66684;47.568;18.734;2023-04-25T08:49:06;5.95;;;4.68;;
51758;SDS011;66684;47.568;18.734;2023-04-25T08:51:34;6.55;;;4.80;;
51758;SDS011;66684;47.568;18.734;2023-04-25T08:54:08;6.43;;;4.95;;
51758;SDS011;66684;47.568;18.734;2023-04-25T08:56:36;10.45;;;4.18;;
51758;SDS011;66684;47.568;18.734;2023-04-25T08:59:06;4.20;;;3.15;;
51758;SDS011;66684;47.568;18.734;2023-04-25T09:01:36;5.47;;;3.67;;
51758;SDS011;66684;47.568;18.734;2023-04-25T09:04:02;4.70;;;3.45;;
51758;SDS011;66684;47.568;18.734;2023-04-25T09:06:29;3.47;;;3.10;;
51758;SDS011;66684;47.568;18.734;2023-04-25T09:09:05;4.03;;;3.42;;
51758;SDS011;66684;47.568;18.734;2023-04-25T09:11:33;5.45;;;4.00;;
51758;SDS011;66684;47.568;18.734;2023-04-25T09:14:17;6.37;;;4.00;;
51758;SDS011;66684;47.568;18.734;2023-04-25T09:17:05;4.32;;;3.45;;
51758;SDS011;66684;47.568;18.734;2023-04-25T09:19:36;4.75;;;4.07;;
51758;SDS011;66684;47.568;18.734;2023-04-25T09:22:05;3.95;;;3.55;;
51758;SDS011;66684;47.568;18.734;2023-04-25T09:24:44;6.32;;;3.47;;
51758;SDS011;66684;47.568;18.734;2023-04-25T09:27:12;3.97;;;3.20;;
51758;SDS011;66684;47.568;18.734;2023-04-25T09:29:43;3.55;;;3.00;;
51758;SDS011;66684;47.568;18.734;2023-04-25T09:32:19;3.90;;;3.17;;
51758;SDS011;66684;47.568;18.734;2023-04-25T09:34:47;4.05;;;2.37;;
51758;SDS011;66684;47.568;18.734;2023-04-25T09:37:18;2.75;;;2.30;;
51758;SDS011;66684;47.568;18.734;2023-04-25T09:39:46;3.75;;;1.95;;
51758;SDS011;66684;47.568;18.734;2023-04-25T09:42:16;5.10;;;2.33;;
51758;SDS011;66684;47.568;18.734;2023-04-25T09:44:46;9.27;;;2.42;;
51758;SDS011;66684;47.568;18.734;2023-04-25T09:47:13;3.05;;;2.08;;
51758;SDS011;66684;47.568;18.734;2023-04-25T09:49:42;6.53;;;1.85;;
51758;SDS011;66684;47.568;18.734;2023-04-25T09:52:09;4.18;;;1.70;;
51758;SDS011;66684;47.568;18.734;2023-04-25T09:54:40;1.75;;;1.20;;
51758;SDS011;66684;47.568;18.734;2023-04-25T09:57:16;2.00;;;1.50;;
51758;SDS011;66684;47.568;18.734;2023-04-25T09:59:44;3.70;;;1.90;;
51758;SDS011;66684;47.568;18.734;2023-04-25T10:02:11;2.17;;;1.90;;
51758;SDS011;66684;47.568;18.734;2023-04-25T10:04:40;3.35;;;1.85;;
51758;SDS011;66684;47.568;18.734;2023-04-25T10:07:07;3.65;;;2.03;;
51758;SDS011;66684;47.568;18.734;2023-04-25T10:09:35;3.50;;;2.20;;
51758;SDS011;66684;47.568;18.734;2023-04-25T10:12:03;2.47;;;2.00;;
51758;SDS011;66684;47.568;18.734;2023-04-25T10:14:30;1.83;;;1.50;;
51758;SDS011;66684;47.568;18.734;2023-04-25T10:16:57;1.33;;;0.88;;
51758;SDS011;66684;47.568;18.734;2023-04-25T10:19:24;3.97;;;0.60;;
51758;SDS011;66684;47.568;18.734;2023-04-25T10:22:11;8.57;;;0.70;;
51758;SDS011;66684;47.568;18.734;2023-04-25T10:24:42;1.90;;;0.52;;
51758;SDS011;66684;47.568;18.734;2023-04-25T10:27:09;0.90;;;0.50;;
51758;SDS011;66684;47.568;18.734;2023-04-25T10:29:36;0.90;;;0.40;;
51758;SDS011;66684;47.568;18.734;2023-04-25T10:32:02;1.00;;;0.40;;
51758;SDS011;66684;47.568;18.734;2023-04-25T10:34:41;3.22;;;0.40;;
51758;SDS011;66684;47.568;18.734;2023-04-25T10:37:12;0.62;;;0.30;;
51758;SDS011;66684;47.568;18.734;2023-04-25T10:39:41;0.82;;;0.20;;
51758;SDS011;66684;47.568;18.734;2023-04-25T10:42:07;0.88;;;0.20;;
51758;SDS011;66684;47.568;18.734;2023-04-25T10:44:34;0.85;;;0.30;;
51758;SDS011;66684;47.568;18.734;2023-04-25T10:47:02;1.12;;;0.30;;
51758;SDS011;66684;47.568;18.734;2023-04-25T10:49:30;0.70;;;0.30;;
51758;SDS011;66684;47.568;18.734;2023-04-25T10:54:55;1.48;;;0.40;;
51758;SDS011;66684;47.568;18.734;2023-04-25T11:00:12;1.37;;;0.30;;
51758;SDS011;66684;47.568;18.734;2023-04-25T11:02:45;2.78;;;0.40;;
51758;SDS011;66684;47.568;18.734;2023-04-25T11:08:01;0.68;;;0.45;;
51758;SDS011;66684;47.568;18.734;2023-04-25T11:10:29;1.70;;;0.52;;
51758;SDS011;66684;47.568;18.734;2023-04-25T11:12:57;1.23;;;0.43;;
51758;SDS011;66684;47.568;18.734;2023-04-25T11:15:23;8.13;;;0.73;;
51758;SDS011;66684;47.568;18.734;2023-04-25T11:17:53;0.60;;;0.30;;
51758;SDS011;66684;47.568;18.734;2023-04-25T11:20:20;0.68;;;0.30;;
51758;SDS011;66684;47.568;18.734;2023-04-25T11:22:47;0.70;;;0.30;;
51758;SDS011;66684;47.568;18.734;2023-04-25T11:25:14;0.85;;;0.43;;
51758;SDS011;66684;47.568;18.734;2023-04-25T11:27:51;0.93;;;0.45;;
51758;SDS011;66684;47.568;18.734;2023-04-25T11:30:18;1.48;;;0.62;;
51758;SDS011;66684;47.568;18.734;2023-04-25T11:32:46;0.98;;;0.43;;
51758;SDS011;66684;47.568;18.734;2023-04-25T11:35:12;2.45;;;0.70;;
51758;SDS011;66684;47.568;18.734;2023-04-25T11:37:39;1.10;;;0.43;;
51758;SDS011;66684;47.568;18.734;2023-04-25T11:40:06;1.48;;;0.85;;
51758;SDS011;66684;47.568;18.734;2023-04-25T11:42:32;2.35;;;0.80;;
51758;SDS011;66684;47.568;18.734;2023-04-25T11:44:59;1.12;;;0.55;;
51758;SDS011;66684;47.568;18.734;2023-04-25T11:47:31;4.43;;;1.00;;
51758;SDS011;66684;47.568;18.734;2023-04-25T11:50:02;1.37;;;0.52;;
51758;SDS011;66684;47.568;18.734;2023-04-25T11:52:39;1.75;;;0.85;;
51758;SDS011;66684;47.568;18.734;2023-04-25T11:55:07;14.30;;;1.35;;
51758;SDS011;66684;47.568;18.734;2023-04-25T11:57:35;1.37;;;0.60;;
51758;SDS011;66684;47.568;18.734;2023-04-25T12:00:21;2.22;;;0.73;;
51758;SDS011;66684;47.568;18.734;2023-04-25T12:02:51;1.33;;;0.60;;
51758;SDS011;66684;47.568;18.734;2023-04-25T12:05:23;4.18;;;1.00;;
51758;SDS011;66684;47.568;18.734;2023-04-25T12:07:51;2.62;;;0.77;;
51758;SDS011;66684;47.568;18.734;2023-04-25T12:10:17;1.02;;;0.50;;
51758;SDS011;66684;47.568;18.734;2023-04-25T12:12:45;0.98;;;0.60;;
51758;SDS011;66684;47.568;18.734;2023-04-25T12:15:16;1.55;;;0.60;;
51758;SDS011;66684;47.568;18.734;2023-04-25T12:17:50;3.35;;;1.00;;
51758;SDS011;66684;47.568;18.734;2023-04-25T12:20:20;4.45;;;0.73;;
51758;SDS011;66684;47.568;18.734;2023-04-25T12:22:49;2.35;;;0.60;;
51758;SDS011;66684;47.568;18.734;2023-04-25T12:28:13;2.17;;;0.65;;
51758;SDS011;66684;47.568;18.734;2023-04-25T12:30:52;3.28;;;0.45;;
51758;SDS011;66684;47.568;18.734;2023-04-25T12:35:49;2.90;;;0.85;;
51758;SDS011;66684;47.568;18.734;2023-04-25T12:38:28;1.17;;;0.40;;
51758;SDS011;66684;47.568;18.734;2023-04-25T12:41:01;3.10;;;0.60;;
51758;SDS011;66684;47.568;18.734;2023-04-25T12:43:27;1.83;;;0.50;;
51758;SDS011;66684;47.568;18.734;2023-04-25T12:45:53;1.77;;;0.52;;
51758;SDS011;66684;47.568;18.734;2023-04-25T12:48:20;1.12;;;0.40;;
51758;SDS011;66684;47.568;18.734;2023-04-25T12:50:47;0.82;;;0.40;;
51758;SDS011;66684;47.568;18.734;2023-04-25T12:53:20;0.70;;;0.50;;
51758;SDS011;66684;47.568;18.734;2023-04-25T12:55:47;3.47;;;0.60;;
51758;SDS011;66684;47.568;18.734;2023-04-25T12:58:14;1.27;;;0.52;;
51758;SDS011;66684;47.568;18.734;2023-04-25T13:00:41;3.50;;;0.70;;
51758;SDS011;66684;47.568;18.734;2023-04-25T13:03:07;2.22;;;0.60;;
51758;SDS011;66684;47.568;18.734;2023-04-25T13:05:34;5.18;;;0.50;;
51758;SDS011;66684;47.568;18.734;2023-04-25T13:08:00;1.20;;;0.60;;
51758;SDS011;66684;47.568;18.734;2023-04-25T13:10:26;2.95;;;0.70;;
51758;SDS011;66684;47.568;18.734;2023-04-25T13:12:52;1.08;;;0.50;;
51758;SDS011;66684;47.568;18.734;2023-04-25T13:15:18;2.97;;;0.68;;
51758;SDS011;66684;47.568;18.734;2023-04-25T13:17:45;1.17;;;0.62;;
51758;SDS011;66684;47.568;18.734;2023-04-25T13:20:10;4.00;;;1.12;;
51758;SDS011;66684;47.568;18.734;2023-04-25T13:22:37;4.32;;;0.60;;
51758;SDS011;66684;47.568;18.734;2023-04-25T13:25:04;1.90;;;0.55;;
51758;SDS011;66684;47.568;18.734;2023-04-25T13:27:32;2.40;;;0.70;;
51758;SDS011;66684;47.568;18.734;2023-04-25T13:29:59;3.25;;;0.73;;
51758;SDS011;66684;47.568;18.734;2023-04-25T13:32:26;3.33;;;0.80;;
51758;SDS011;66684;47.568;18.734;2023-04-25T13:34:52;1.20;;;0.45;;
51758;SDS011;66684;47.568;18.734;2023-04-25T13:37:18;5.55;;;0.65;;
51758;SDS011;66684;47.568;18.734;2023-04-25T13:39:44;1.67;;;0.80;;
51758;SDS011;66684;47.568;18.734;2023-04-25T13:42:10;3.05;;;0.90;;
51758;SDS011;66684;47.568;18.734;2023-04-25T13:44:36;2.60;;;0.73;;
51758;SDS011;66684;47.568;18.734;2023-04-25T13:47:02;1.67;;;0.65;;
51758;SDS011;66684;47.568;18.734;2023-04-25T13:49:28;0.82;;;0.52;;
51758;SDS011;66684;47.568;18.734;2023-04-25T13:51:54;1.70;;;0.65;;
51758;SDS011;66684;47.568;18.734;2023-04-25T13:54:20;1.27;;;0.60;;
51758;SDS011;66684;47.568;18.734;2023-04-25T13:56:46;2.25;;;0.70;;
51758;SDS011;66684;47.568;18.734;2023-04-25T13:59:12;1.30;;;0.75;;
51758;SDS011;66684;47.568;18.734;2023-04-25T14:01:38;1.67;;;0.60;;
51758;SDS011;66684;47.568;18.734;2023-04-25T14:04:04;2.17;;;0.60;;
51758;SDS011;66684;47.568;18.734;2023-04-25T14:06:30;1.80;;;0.80;;
51758;SDS011;66684;47.568;18.734;2023-04-25T14:08:57;0.93;;;0.60;;
51758;SDS011;66684;47.568;18.734;2023-04-25T14:11:23;3.28;;;1.05;;
51758;SDS011;66684;47.568;18.734;2023-04-25T14:13:49;1.95;;;0.90;;
51758;SDS011;66684;47.568;18.734;2023-04-25T14:16:15;2.12;;;0.85;;
51758;SDS011;66684;47.568;18.734;2023-04-25T14:18:41;5.32;;;1.37;;
51758;SDS011;66684;47.568;18.734;2023-04-25T14:21:07;3.00;;;0.98;;
51758;SDS011;66684;47.568;18.734;2023-04-25T14:23:34;2.55;;;1.00;;
51758;SDS011;66684;47.568;18.734;2023-04-25T14:26:00;5.18;;;1.00;;
51758;SDS011;66684;47.568;18.734;2023-04-25T14:28:27;1.85;;;1.12;;
51758;SDS011;66684;47.568;18.734;2023-04-25T14:30:53;1.33;;;0.73;;
51758;SDS011;66684;47.568;18.734;2023-04-25T14:33:18;1.05;;;0.60;;
51758;SDS011;66684;47.568;18.734;2023-04-25T14:35:44;2.15;;;0.85;;
51758;SDS011;66684;47.568;18.734;2023-04-25T14:38:11;4.07;;;1.00;;
51758;SDS011;66684;47.568;18.734;2023-04-25T14:40:37;2.20;;;0.90;;
51758;SDS011;66684;47.568;18.734;2023-04-25T14:43:03;1.70;;;0.82;;
51758;SDS011;66684;47.568;18.734;2023-04-25T14:45:29;2.95;;;0.62;;
51758;SDS011;66684;47.568;18.734;2023-04-25T14:47:55;4.50;;;0.90;;